createdAt,value
2023-02-22T00:02:25.511Z,7.60
2023-02-22T00:05:37.334Z,7.95
2023-02-22T00:08:49.382Z,8.20
2023-02-22T00:12:14.328Z,8.00
2023-02-22T00:15:18.449Z,8.77
2023-02-22T00:18:42.453Z,6.93
2023-02-22T00:21:43.358Z,12.20
2023-02-22T00:24:56.447Z,10.60
2023-02-22T00:28:10.412Z,8.07
2023-02-22T00:31:25.466Z,8.60
2023-02-22T00:34:37.447Z,7.60
2023-02-22T00:37:54.468Z,8.63
2023-02-22T00:41:06.450Z,8.17
2023-02-22T00:44:31.531Z,8.80
2023-02-22T00:47:55.524Z,8.37
2023-02-22T00:51:08.493Z,7.80
2023-02-22T00:54:32.529Z,8.30
2023-02-22T00:57:46.512Z,10.97
2023-02-22T01:01:00.607Z,9.10
2023-02-22T01:04:12.573Z,8.80
2023-02-22T01:07:15.564Z,9.07
2023-02-22T01:10:39.576Z,9.27
2023-02-22T01:14:03.516Z,8.23
2023-02-22T01:17:32.538Z,8.40
2023-02-22T01:20:44.555Z,8.57
2023-02-22T01:24:09.598Z,9.60
2023-02-22T01:27:09.608Z,9.00
2023-02-22T01:30:34.763Z,10.05
2023-02-22T01:33:47.638Z,13.20
2023-02-22T01:37:00.614Z,9.07
2023-02-22T01:40:01.658Z,9.97
2023-02-22T01:43:26.626Z,11.77
2023-02-22T01:46:44.643Z,12.57
2023-02-22T01:50:10.677Z,9.80
2023-02-22T01:53:22.703Z,9.50
2023-02-22T01:56:46.657Z,9.17
2023-02-22T01:59:58.838Z,9.77
2023-02-22T02:03:13.671Z,10.13
2023-02-22T02:06:40.697Z,10.55
2023-02-22T02:09:52.694Z,12.50
2023-02-22T02:13:17.706Z,11.15
2023-02-22T02:16:41.833Z,10.10
2023-02-22T02:19:55.748Z,9.03
2023-02-22T02:23:21.790Z,9.70
2023-02-22T02:26:40.822Z,10.30
2023-02-22T02:30:09.805Z,9.05
2023-02-22T02:33:23.873Z,10.40
2023-02-22T02:36:47.787Z,9.10
2023-02-22T02:39:59.849Z,9.50
2023-02-22T02:43:24.824Z,9.33
2023-02-22T02:46:36.904Z,10.75
2023-02-22T02:50:02.844Z,13.23
2023-02-22T02:53:14.898Z,9.65
2023-02-22T02:56:38.918Z,9.73
2023-02-22T02:59:50.905Z,9.83
2023-02-22T03:03:21.110Z,10.85
2023-02-22T03:06:47.886Z,9.83
2023-02-22T03:10:14.980Z,9.27
2023-02-22T03:13:30.961Z,15.15
2023-02-22T03:16:55.894Z,14.75
2023-02-22T03:20:21.914Z,11.03
2023-02-22T03:23:48.011Z,11.70
2023-02-22T03:27:15.046Z,11.30
2023-02-22T03:30:39.163Z,17.30
2023-02-22T03:34:02.966Z,18.23
2023-02-22T03:37:27.069Z,14.73
2023-02-22T03:40:56.051Z,14.57
2023-02-22T03:44:20.052Z,14.43
2023-02-22T03:47:44.008Z,16.45
2023-02-22T03:51:12.160Z,13.05
2023-02-22T03:54:36.014Z,14.20
2023-02-22T03:58:02.110Z,15.13
2023-02-22T04:01:14.184Z,14.37
2023-02-22T04:04:30.186Z,12.80
2023-02-22T04:07:54.157Z,18.60
2023-02-22T04:11:06.100Z,17.45
2023-02-22T04:14:32.143Z,19.57
2023-02-22T04:17:45.082Z,17.27
2023-02-22T04:20:57.139Z,14.43
2023-02-22T04:24:09.183Z,18.00
2023-02-22T04:27:21.194Z,15.25
2023-02-22T04:30:47.199Z,17.20
2023-02-22T04:33:59.192Z,18.10
2023-02-22T04:37:11.170Z,18.77
2023-02-22T04:40:35.184Z,16.23
2023-02-22T04:43:47.189Z,17.03
2023-02-22T04:47:13.270Z,20.13
2023-02-22T04:50:38.261Z,21.80
2023-02-22T04:53:53.284Z,20.20
2023-02-22T04:57:18.290Z,16.80
2023-02-22T05:00:31.270Z,17.20
2023-02-22T05:03:57.282Z,17.63
2023-02-22T05:06:57.300Z,21.65
2023-02-22T05:10:21.286Z,19.70
2023-02-22T05:13:24.312Z,17.83
2023-02-22T05:16:49.352Z,22.57
2023-02-22T05:20:06.376Z,17.67
2023-02-22T05:23:31.365Z,22.23
2023-02-22T05:26:32.314Z,23.05
2023-02-22T05:29:45.302Z,23.23
2023-02-22T05:32:47.005Z,26.40
2023-02-22T05:36:11.444Z,18.35
2023-02-22T05:39:11.392Z,18.93
2023-02-22T05:42:23.439Z,17.80
2023-02-22T05:45:39.443Z,23.50
2023-02-22T05:49:04.581Z,19.60
2023-02-22T05:52:21.468Z,18.10
2023-02-22T05:55:46.695Z,19.30
2023-02-22T05:58:58.449Z,18.40
2023-02-22T06:02:13.533Z,18.00
2023-02-22T06:05:27.562Z,20.60
2023-02-22T06:08:41.490Z,19.55
2023-02-22T06:11:54.528Z,23.40
2023-02-22T06:14:54.449Z,19.45
2023-02-22T06:18:18.508Z,21.53
2023-02-22T06:21:30.548Z,19.03
2023-02-22T06:24:56.500Z,21.70
2023-02-22T06:28:08.582Z,18.97
2023-02-22T06:31:23.658Z,19.67
2023-02-22T06:34:26.496Z,19.67
2023-02-22T06:37:41.588Z,20.77
2023-02-22T06:40:54.533Z,18.90
2023-02-22T06:44:18.588Z,19.07
2023-02-22T06:47:18.655Z,19.40
2023-02-22T06:50:43.621Z,27.43
2023-02-22T06:53:43.645Z,21.65
2023-02-22T06:57:09.670Z,20.27
2023-02-22T07:00:10.655Z,21.13
2023-02-22T07:03:35.822Z,21.70
2023-02-22T07:06:47.622Z,26.50
2023-02-22T07:09:59.682Z,24.25
2023-02-22T07:13:13.685Z,20.20
2023-02-22T07:16:25.722Z,24.75
2023-02-22T07:19:25.709Z,24.13
2023-02-22T07:22:37.657Z,23.90
2023-02-22T07:25:37.767Z,19.60
2023-02-22T07:29:06.752Z,20.90
2023-02-22T07:32:10.849Z,25.70
2023-02-22T07:35:38.730Z,21.33
2023-02-22T07:38:38.811Z,23.00
2023-02-22T07:42:03.833Z,20.97
2023-02-22T07:45:33.764Z,25.57
2023-02-22T07:48:45.856Z,20.80
2023-02-22T07:51:45.842Z,23.10
2023-02-22T07:55:10.882Z,23.00
2023-02-22T07:58:22.878Z,28.43
2023-02-22T08:01:48.878Z,23.50
2023-02-22T08:05:00.864Z,24.05
2023-02-22T08:08:00.840Z,25.20
2023-02-22T08:11:24.911Z,26.33
2023-02-22T08:14:36.851Z,23.25
2023-02-22T08:18:02.875Z,26.27
2023-02-22T08:21:14.954Z,23.40
2023-02-22T08:24:27.914Z,25.13
2023-02-22T08:27:27.947Z,28.25
2023-02-22T08:30:52.121Z,23.93
2023-02-22T08:34:05.896Z,25.40
2023-02-22T08:37:20.975Z,24.97
2023-02-22T08:40:21.955Z,23.90
2023-02-22T08:43:37.077Z,24.00
2023-02-22T08:46:36.986Z,23.40
2023-02-22T08:50:01.916Z,23.43
2023-02-22T08:53:15.010Z,21.97
2023-02-22T08:56:29.978Z,23.40
2023-02-22T08:59:41.999Z,21.27
2023-02-22T09:03:06.099Z,22.00
2023-02-22T09:06:20.121Z,22.03
2023-02-22T09:09:44.078Z,20.55
2023-02-22T09:12:44.076Z,21.65
2023-02-22T09:15:56.047Z,21.80
2023-02-22T09:19:08.022Z,21.13
2023-02-22T09:22:35.112Z,20.83
2023-02-22T09:25:47.033Z,21.80
2023-02-22T09:29:15.057Z,20.60
2023-02-22T09:32:15.200Z,20.83
2023-02-22T09:35:28.099Z,20.20
2023-02-22T09:38:45.100Z,19.70
2023-02-22T09:42:13.241Z,20.20
2023-02-22T09:45:31.187Z,18.87
2023-02-22T09:48:55.206Z,19.45
2023-02-22T09:52:10.225Z,18.55
2023-02-22T09:55:37.224Z,20.65
2023-02-22T09:58:49.255Z,18.73
2023-02-22T10:02:13.167Z,19.00
2023-02-22T10:05:37.324Z,20.57
2023-02-22T10:08:49.174Z,17.90
2023-02-22T10:12:18.271Z,18.30
2023-02-22T10:15:37.323Z,17.10
2023-02-22T10:19:11.265Z,18.33
2023-02-22T10:22:29.297Z,18.65
2023-02-22T10:25:53.333Z,19.60
2023-02-22T10:29:09.259Z,19.17
2023-02-22T10:32:33.354Z,18.03
2023-02-22T10:35:47.150Z,17.57
2023-02-22T10:39:11.333Z,19.05
2023-02-22T10:42:26.345Z,17.10
2023-02-22T10:45:53.339Z,17.50
2023-02-22T10:49:06.369Z,16.90
2023-02-22T10:52:31.355Z,17.43
2023-02-22T10:55:31.400Z,17.27
2023-02-22T10:58:55.433Z,18.30
2023-02-22T11:02:09.426Z,18.80
2023-02-22T11:05:34.485Z,17.27
2023-02-22T11:08:50.424Z,17.17
2023-02-22T11:12:14.456Z,16.75
2023-02-22T11:15:29.421Z,17.63
2023-02-22T11:18:58.473Z,17.73
2023-02-22T11:22:10.435Z,16.10
2023-02-22T11:25:42.548Z,17.10
2023-02-22T11:28:54.490Z,17.33
2023-02-22T11:32:21.579Z,16.93
2023-02-22T11:35:45.470Z,16.35
2023-02-22T11:39:20.555Z,18.63
2023-02-22T11:42:38.509Z,17.90
2023-02-22T11:46:02.732Z,17.10
2023-02-22T11:49:20.518Z,16.17
2023-02-22T11:52:45.582Z,17.37
2023-02-22T11:56:00.628Z,17.30
2023-02-22T11:59:24.598Z,16.90
2023-02-22T12:02:31.552Z,19.57
2023-02-22T12:05:56.582Z,16.40
2023-02-22T12:09:09.577Z,16.50
2023-02-22T12:12:37.567Z,16.00
2023-02-22T12:15:53.602Z,15.83
2023-02-22T12:19:21.733Z,20.10
2023-02-22T12:22:33.607Z,18.43
2023-02-22T12:25:58.806Z,16.37
2023-02-22T12:29:12.700Z,17.67
2023-02-22T12:32:36.672Z,16.07
2023-02-22T12:35:48.692Z,15.90
2023-02-22T12:39:13.702Z,16.47
2023-02-22T12:42:25.761Z,16.40
2023-02-22T12:45:55.753Z,17.30
2023-02-22T12:49:07.773Z,15.17
2023-02-22T12:52:32.708Z,17.15
2023-02-22T12:55:45.801Z,15.95
2023-02-22T12:59:09.739Z,16.17
2023-02-22T13:02:23.713Z,15.73
2023-02-22T13:05:35.782Z,16.43
2023-02-22T13:08:50.745Z,16.50
2023-02-22T13:12:14.820Z,15.77
2023-02-22T13:15:29.790Z,15.93
2023-02-22T13:18:55.807Z,15.75
2023-02-22T13:22:07.818Z,15.40
2023-02-22T13:25:32.855Z,15.30
2023-02-22T13:28:45.906Z,15.43
2023-02-22T13:32:15.937Z,16.10
2023-02-22T13:35:35.848Z,14.60
2023-02-22T13:39:17.932Z,15.77
2023-02-22T13:42:35.881Z,14.63
2023-02-22T13:46:04.932Z,15.23
2023-02-22T13:49:25.864Z,15.50
2023-02-22T13:52:55.848Z,15.47
2023-02-22T13:56:08.000Z,15.10
2023-02-22T13:59:19.946Z,14.90
2023-02-22T14:02:31.965Z,14.67
2023-02-22T14:06:10.973Z,13.73
2023-02-22T14:09:24.952Z,15.35
2023-02-22T14:12:57.238Z,14.30
2023-02-22T14:16:16.411Z,14.65
2023-02-22T14:19:43.115Z,13.47
2023-02-22T14:22:58.064Z,14.17
2023-02-22T14:26:24.026Z,14.50
2023-02-22T14:29:42.021Z,14.27
2023-02-22T14:32:55.147Z,13.43
2023-02-22T14:36:07.104Z,14.35
2023-02-22T14:39:32.132Z,14.25
2023-02-22T14:42:46.116Z,13.27
2023-02-22T14:46:13.382Z,15.47
2023-02-22T14:49:23.107Z,14.07
2023-02-22T14:52:47.130Z,14.47
2023-02-22T14:56:00.143Z,14.80
2023-02-22T14:59:29.092Z,13.85
2023-02-22T15:02:41.176Z,13.27
2023-02-22T15:06:05.186Z,13.50
2023-02-22T15:09:32.959Z,12.57
2023-02-22T15:12:43.183Z,14.10
2023-02-22T15:15:59.022Z,13.97
2023-02-22T15:19:21.200Z,13.25
2023-02-22T15:22:38.170Z,13.43
2023-02-22T15:26:05.267Z,13.20
2023-02-22T15:29:20.203Z,13.00
2023-02-22T15:33:02.473Z,12.95
2023-02-22T15:35:47.210Z,13.85
2023-02-22T15:39:12.222Z,13.00
2023-02-22T15:42:29.648Z,13.80
2023-02-22T15:45:52.277Z,13.83
2023-02-22T15:49:08.263Z,12.93
2023-02-22T15:52:33.306Z,13.80
2023-02-22T15:55:45.280Z,13.63
2023-02-22T15:59:09.368Z,12.60
2023-02-22T16:02:21.308Z,12.60
2023-02-22T16:05:52.413Z,12.47
2023-02-22T16:09:05.327Z,12.63
2023-02-22T16:12:32.354Z,12.45
2023-02-22T16:15:32.326Z,11.85
2023-02-22T16:18:59.444Z,12.85
2023-02-22T16:22:19.324Z,12.77
2023-02-22T16:25:48.423Z,11.43
2023-02-22T16:29:05.416Z,12.40
2023-02-22T16:32:21.510Z,11.85
2023-02-22T16:35:21.506Z,11.75
2023-02-22T16:38:47.491Z,11.17
2023-02-22T16:41:59.438Z,11.33
2023-02-22T16:45:11.443Z,11.03
2023-02-22T16:48:23.516Z,10.47
2023-02-22T16:51:48.450Z,10.45
2023-02-22T16:55:02.483Z,11.37
2023-02-22T16:58:27.468Z,11.05
2023-02-22T17:01:27.541Z,11.25
2023-02-22T17:04:42.533Z,11.53
2023-02-22T17:07:42.556Z,11.27
2023-02-22T17:11:07.550Z,11.13
2023-02-22T17:14:07.486Z,10.90
2023-02-22T17:17:31.566Z,10.20
2023-02-22T17:20:43.574Z,9.85
2023-02-22T17:23:58.597Z,12.30
2023-02-22T17:27:12.633Z,11.23
2023-02-22T17:30:25.687Z,13.00
2023-02-22T17:33:38.634Z,11.80
2023-02-22T17:37:02.621Z,11.37
2023-02-22T17:40:02.730Z,11.45
2023-02-22T17:43:28.608Z,11.93
2023-02-22T17:46:28.612Z,11.47
2023-02-22T17:49:40.645Z,10.97
2023-02-22T17:52:40.657Z,10.25
2023-02-22T17:56:04.691Z,10.70
2023-02-22T17:59:19.657Z,10.55
2023-02-22T18:02:35.674Z,11.03
2023-02-22T18:05:56.217Z,11.10
2023-02-22T18:08:57.667Z,10.77
2023-02-22T18:12:09.775Z,9.90
2023-02-22T18:15:23.720Z,10.87
2023-02-22T18:18:35.738Z,10.77
2023-02-22T18:21:47.785Z,10.93
2023-02-22T18:25:02.005Z,9.50
2023-02-22T18:28:00.762Z,9.67
2023-02-22T18:31:27.862Z,11.27
2023-02-22T18:34:27.809Z,10.80
2023-02-22T18:37:40.793Z,12.10
2023-02-22T18:40:40.785Z,11.55
2023-02-22T18:44:07.780Z,13.27
2023-02-22T18:47:21.828Z,11.50
2023-02-22T18:50:34.823Z,12.90
2023-02-22T18:53:34.826Z,10.87
2023-02-22T18:56:46.880Z,10.37
2023-02-22T18:59:58.898Z,13.00
2023-02-22T19:03:27.978Z,11.20
2023-02-22T19:06:39.921Z,11.10
2023-02-22T19:09:51.893Z,10.23
2023-02-22T19:12:52.911Z,11.50
2023-02-22T19:16:05.027Z,10.65
2023-02-22T19:19:18.972Z,12.87
2023-02-22T19:22:32.032Z,11.33
2023-02-22T19:25:31.969Z,10.10
2023-02-22T19:28:59.005Z,11.50
2023-02-22T19:31:59.076Z,11.15
2023-02-22T19:35:26.930Z,13.60
2023-02-22T19:38:32.052Z,12.13
2023-02-22T19:41:56.037Z,11.30
2023-02-22T19:44:56.006Z,11.10
2023-02-22T19:48:12.017Z,10.87
2023-02-22T19:51:28.035Z,13.67
2023-02-22T19:54:41.070Z,11.30
2023-02-22T19:57:40.970Z,11.40
2023-02-22T20:00:53.071Z,10.95
2023-02-22T20:04:17.156Z,10.25
2023-02-22T20:07:31.077Z,11.50
2023-02-22T20:10:43.043Z,11.73
2023-02-22T20:13:44.109Z,11.00
2023-02-22T20:16:57.125Z,13.35
2023-02-22T20:19:57.087Z,12.00
2023-02-22T20:23:23.083Z,10.87
2023-02-22T20:26:38.132Z,10.57
2023-02-22T20:29:50.159Z,10.47
2023-02-22T20:33:02.410Z,11.10
2023-02-22T20:36:29.161Z,10.80
2023-02-22T20:39:42.169Z,10.75
2023-02-22T20:42:54.169Z,10.63
2023-02-22T20:45:54.254Z,13.93
2023-02-22T20:49:22.229Z,10.93
2023-02-22T20:52:22.187Z,10.33
2023-02-22T20:55:48.204Z,10.00
2023-02-22T20:58:48.258Z,10.07
2023-02-22T21:02:12.269Z,10.00
2023-02-22T21:05:15.273Z,10.33
2023-02-22T21:08:28.301Z,11.67
2023-02-22T21:11:42.247Z,10.43
2023-02-22T21:14:56.320Z,10.73
2023-02-22T21:17:57.338Z,10.20
2023-02-22T21:21:26.243Z,10.50
2023-02-22T21:24:26.382Z,9.33
2023-02-22T21:27:52.320Z,10.70
2023-02-22T21:31:04.442Z,9.30
2023-02-22T21:34:29.354Z,10.05
2023-02-22T21:37:29.360Z,10.80
2023-02-22T21:40:54.383Z,10.37
2023-02-22T21:44:10.342Z,10.80
2023-02-22T21:47:22.373Z,10.07
2023-02-22T21:50:23.479Z,10.20
2023-02-22T21:53:48.392Z,10.07
2023-02-22T21:57:00.430Z,10.55
2023-02-22T22:00:26.365Z,9.85
2023-02-22T22:03:41.441Z,10.70
2023-02-22T22:06:54.487Z,9.97
2023-02-22T22:10:07.453Z,10.43
2023-02-22T22:13:19.496Z,12.27
2023-02-22T22:16:44.503Z,9.90
2023-02-22T22:19:56.509Z,9.67
2023-02-22T22:23:08.559Z,11.27
2023-02-22T22:26:25.579Z,11.07
2023-02-22T22:29:49.544Z,10.43
2023-02-22T22:33:02.556Z,9.37
2023-02-22T22:36:14.516Z,10.70
2023-02-22T22:39:26.545Z,11.35
2023-02-22T22:42:50.521Z,10.70
2023-02-22T22:45:51.596Z,11.70
2023-02-22T22:49:17.635Z,10.40
2023-02-22T22:52:18.574Z,10.13
2023-02-22T22:55:30.609Z,9.95
2023-02-22T22:58:30.585Z,10.07
2023-02-22T23:01:45.046Z,10.40
2023-02-22T23:04:57.669Z,10.73
2023-02-22T23:08:21.662Z,14.27
2023-02-22T23:11:36.718Z,10.73
2023-02-22T23:15:00.708Z,10.67
2023-02-22T23:18:01.602Z,10.73
2023-02-22T23:21:27.685Z,10.73
2023-02-22T23:24:39.749Z,11.75
2023-02-22T23:27:51.670Z,11.63
2023-02-22T23:30:51.676Z,11.10
2023-02-22T23:34:15.793Z,11.20
2023-02-22T23:37:29.746Z,12.20
2023-02-22T23:40:41.702Z,12.80
2023-02-22T23:43:41.718Z,13.70
2023-02-22T23:46:54.768Z,12.07
2023-02-22T23:49:54.729Z,11.15
2023-02-22T23:53:20.778Z,12.10
2023-02-22T23:56:32.811Z,12.60
2023-02-22T23:59:56.812Z,14.45
